Time;durP1;ratioP1;P1;durP2;ratioP2;P2;SDS_P1;SDS_P2;PMS_P1;PMS_P2;Temp;Humidity;BMP_temperature;BMP_pressure;BME280_temperature;BME280_humidity;BME280_pressure;Samples;Min_cycle;Max_cycle;Signal;HPM_P1;HPM_P2
2024/03/25 00:01:38;;;;;;;2.90;2.47;;;4.50;99.90;;;;;;5058766;28;20420;-85
2024/03/25 00:04:04;;;;;;;4.53;2.40;;;4.50;99.90;;;;;;5052304;28;20734;-87
2024/03/25 00:06:33;;;;;;;2.37;2.17;;;4.80;99.90;;;;;;5055932;28;20836;-87
2024/03/25 00:09:01;;;;;;;3.67;2.45;;;5.00;99.90;;;;;;5057900;28;20891;-86
2024/03/25 00:11:27;;;;;;;3.42;2.10;;;4.50;99.90;;;;;;5057836;28;20381;-86
2024/03/25 00:13:53;;;;;;;3.13;2.00;;;5.00;99.90;;;;;;5055399;28;20432;-86
2024/03/25 00:16:18;;;;;;;2.50;2.30;;;4.80;99.90;;;;;;5055726;28;20411;-85
2024/03/25 00:18:44;;;;;;;4.00;2.30;;;5.00;99.90;;;;;;5055385;28;20405;-86
2024/03/25 00:21:09;;;;;;;2.97;2.00;;;4.70;99.90;;;;;;5055646;28;20397;-86
2024/03/25 00:23:35;;;;;;;3.40;2.10;;;;;;;;;;5056683;28;20389;-86
2024/03/25 00:26:01;;;;;;;2.40;1.80;;;5.20;99.90;;;;;;5056036;28;20887;-87
2024/03/25 00:28:26;;;;;;;4.60;1.93;;;5.50;99.90;;;;;;5057175;28;20761;-86
2024/03/25 00:30:52;;;;;;;4.17;2.30;;;5.30;99.90;;;;;;5057650;28;20385;-86
2024/03/25 00:33:17;;;;;;;3.20;2.00;;;5.50;99.90;;;;;;5058362;28;20382;-87
2024/03/25 00:35:45;;;;;;;3.10;1.80;;;5.30;99.90;;;;;;5057117;28;20392;-88
2024/03/25 00:38:11;;;;;;;3.45;1.80;;;5.50;99.90;;;;;;5041753;28;20447;-88
2024/03/25 00:40:36;;;;;;;5.10;2.33;;;5.10;99.90;;;;;;5062664;28;20393;-89
2024/03/25 00:43:03;;;;;;;4.78;2.35;;;4.50;99.90;;;;;;5069901;28;20461;-87
2024/03/25 00:45:30;;;;;;;2.30;1.92;;;5.10;99.90;;;;;;5062726;28;20389;-86
2024/03/25 00:47:57;;;;;;;2.47;2.03;;;4.90;99.90;;;;;;5064722;28;20395;-86
2024/03/25 00:50:23;;;;;;;3.00;2.50;;;4.30;99.90;;;;;;5070650;28;20871;-86
2024/03/25 00:52:49;;;;;;;3.55;2.20;;;4.70;99.90;;;;;;5059117;28;20904;-86
2024/03/25 00:55:14;;;;;;;2.57;2.37;;;4.50;99.90;;;;;;5043928;28;20492;-86
2024/03/25 00:57:40;;;;;;;3.00;2.20;;;4.80;99.90;;;;;;5058268;28;20396;-86
2024/03/25 01:00:07;;;;;;;4.20;2.30;;;4.60;99.90;;;;;;5054295;28;20756;-86
2024/03/25 01:02:33;;;;;;;2.50;2.30;;;4.40;99.90;;;;;;5057888;28;20754;-85
2024/03/25 01:04:59;;;;;;;3.20;2.50;;;4.60;99.90;;;;;;5055540;28;20408;-85
2024/03/25 01:07:25;;;;;;;2.40;2.00;;;4.50;99.90;;;;;;5057606;28;20447;-86
2024/03/25 01:09:51;;;;;;;3.33;2.50;;;4.50;99.90;;;;;;5056744;28;20392;-85
2024/03/25 01:12:16;;;;;;;3.67;2.23;;;3.90;99.90;;;;;;5054601;28;20422;-85
2024/03/25 01:14:42;;;;;;;2.23;1.90;;;4.50;99.90;;;;;;5057277;28;20400;-86
2024/03/25 01:17:08;;;;;;;3.40;2.10;;;4.10;99.90;;;;;;5056778;28;20381;-86
2024/03/25 01:19:33;;;;;;;3.45;2.30;;;4.60;99.90;;;;;;5051470;28;20451;-84
2024/03/25 01:21:59;;;;;;;3.20;2.00;;;4.20;99.90;;;;;;5058424;28;20916;-86
2024/03/25 01:24:25;;;;;;;4.30;2.60;;;4.20;99.90;;;;;;5057439;28;20419;-87
2024/03/25 01:26:51;;;;;;;3.00;2.00;;;4.50;99.90;;;;;;5054673;28;20385;-86
2024/03/25 01:29:18;;;;;;;3.50;2.10;;;4.50;99.90;;;;;;5054872;28;20394;-86
2024/03/25 01:31:44;;;;;;;3.03;1.98;;;4.60;99.90;;;;;;5057095;28;20385;-86
2024/03/25 01:34:09;;;;;;;2.63;1.90;;;4.50;99.90;;;;;;5055700;28;20453;-86
2024/03/25 01:36:35;;;;;;;3.20;2.30;;;4.40;99.90;;;;;;5056230;28;20447;-86
2024/03/25 01:39:01;;;;;;;3.63;2.00;;;4.40;99.90;;;;;;5065255;28;20408;-86
2024/03/25 01:41:27;;;;;;;2.22;2.03;;;;;;;;;;5064172;28;20473;-87
2024/03/25 01:43:52;;;;;;;2.13;1.80;;;4.50;99.90;;;;;;5062674;28;20409;-87
2024/03/25 01:46:19;;;;;;;2.22;2.03;;;4.60;99.90;;;;;;5050570;28;20401;-88
2024/03/25 01:48:45;;;;;;;2.33;2.10;;;4.20;99.90;;;;;;5043773;28;20387;-86
2024/03/25 01:51:14;;;;;;;2.80;1.90;;;4.20;99.90;;;;;;5061803;28;20400;-87
2024/03/25 01:53:40;;;;;;;2.60;2.40;;;4.20;99.90;;;;;;5062274;28;20391;-86
2024/03/25 01:56:07;;;;;;;2.78;1.80;;;4.50;99.90;;;;;;5061848;28;20957;-87
2024/03/25 01:58:33;;;;;;;2.92;2.33;;;4.50;99.90;;;;;;5061960;28;20396;-86
2024/03/25 02:01:01;;;;;;;2.97;2.10;;;4.50;99.90;;;;;;5060808;28;20405;-86
2024/03/25 02:03:27;;;;;;;2.60;2.00;;;4.50;99.90;;;;;;5049226;28;20383;-85
2024/03/25 02:05:56;;;;;;;3.92;1.90;;;4.50;99.90;;;;;;5058522;28;20381;-87
2024/03/25 02:08:22;;;;;;;3.03;2.30;;;4.30;99.90;;;;;;5060123;28;20385;-86
2024/03/25 02:10:48;;;;;;;2.75;1.95;;;4.30;99.90;;;;;;5061370;28;20381;-86
2024/03/25 02:13:15;;;;;;;2.40;1.90;;;4.80;99.90;;;;;;5060298;28;20416;-86
2024/03/25 02:15:41;;;;;;;3.13;2.30;;;4.30;99.90;;;;;;5059136;28;20385;-88
2024/03/25 02:18:07;;;;;;;3.03;2.10;;;4.50;99.90;;;;;;5061221;28;20401;-85
2024/03/25 02:20:33;;;;;;;2.43;2.23;;;4.40;99.90;;;;;;5060336;28;20405;-87
2024/03/25 02:22:58;;;;;;;3.43;2.40;;;4.40;99.90;;;;;;5058833;28;20418;-86
2024/03/25 02:25:24;;;;;;;2.50;1.80;;;4.30;99.90;;;;;;5059752;28;20397;-86
2024/03/25 02:27:50;;;;;;;3.28;2.22;;;4.20;99.90;;;;;;5060126;28;20657;-87
2024/03/25 02:30:16;;;;;;;5.03;2.30;;;4.20;99.90;;;;;;5060654;28;20389;-86
2024/03/25 02:32:42;;;;;;;2.65;2.10;;;4.00;99.90;;;;;;5061043;28;20386;-86
2024/03/25 02:35:13;;;;;;;3.10;2.10;;;4.20;99.90;;;;;;5059779;28;20420;-88
2024/03/25 02:37:40;;;;;;;2.75;2.53;;;4.40;99.90;;;;;;5063223;28;20424;-86
2024/03/25 02:40:07;;;;;;;4.20;2.00;;;4.20;99.90;;;;;;5061265;28;20739;-86
2024/03/25 02:42:33;;;;;;;3.60;2.45;;;4.50;99.90;;;;;;5059544;28;20424;-86
2024/03/25 02:44:59;;;;;;;2.70;2.15;;;4.30;99.90;;;;;;5059015;28;20380;-87
2024/03/25 02:47:25;;;;;;;2.78;2.30;;;4.90;99.90;;;;;;5059396;28;20761;-86
2024/03/25 02:49:51;;;;;;;3.33;2.28;;;4.00;99.90;;;;;;5058217;28;20449;-86
2024/03/25 02:52:17;;;;;;;3.08;2.25;;;3.90;99.90;;;;;;5043783;28;20449;-86
2024/03/25 02:54:42;;;;;;;3.42;2.60;;;3.60;99.90;;;;;;5051383;28;20394;-86
2024/03/25 02:57:08;;;;;;;3.30;2.78;;;4.00;99.90;;;;;;5064622;28;20730;-86
2024/03/25 02:59:33;;;;;;;3.00;2.40;;;4.10;99.90;;;;;;5057118;28;20377;-86
2024/03/25 03:01:59;;;;;;;2.40;2.20;;;3.00;99.90;;;;;;5058266;28;20404;-86
2024/03/25 03:04:24;;;;;;;2.80;2.30;;;3.70;99.90;;;;;;5060768;28;20389;-86
2024/03/25 03:06:50;;;;;;;3.93;2.67;;;4.00;99.90;;;;;;5060695;28;20400;-86
2024/03/25 03:09:15;;;;;;;3.43;2.90;;;4.10;99.90;;;;;;5045132;28;20407;-87
2024/03/25 03:11:41;;;;;;;2.87;2.27;;;4.50;99.90;;;;;;5051121;28;20845;-87
2024/03/25 03:14:07;;;;;;;3.90;2.53;;;4.20;99.90;;;;;;5060783;28;20385;-86
2024/03/25 03:16:32;;;;;;;3.22;2.53;;;4.20;99.90;;;;;;5058583;28;20390;-86
2024/03/25 03:18:58;;;;;;;4.38;2.80;;;4.10;99.90;;;;;;5073270;22;20441;-83
2024/03/25 03:21:23;;;;;;;3.38;2.60;;;4.20;99.90;;;;;;5065948;28;20420;-83
2024/03/25 03:23:49;;;;;;;2.70;2.50;;;4.20;99.90;;;;;;5060672;28;20412;-83
2024/03/25 03:26:14;;;;;;;3.70;2.43;;;3.80;99.90;;;;;;5054260;28;20452;-83
2024/03/25 03:28:40;;;;;;;4.97;2.20;;;3.90;99.90;;;;;;5055846;28;20381;-83
2024/03/25 03:31:06;;;;;;;2.70;2.30;;;4.00;99.90;;;;;;5056040;28;20473;-83
2024/03/25 03:33:32;;;;;;;5.10;2.80;;;3.80;99.90;;;;;;5055592;28;20832;-83
2024/03/25 03:35:57;;;;;;;3.20;2.35;;;4.00;99.90;;;;;;5054428;28;20385;-83
2024/03/25 03:38:23;;;;;;;2.72;2.42;;;4.20;99.90;;;;;;5037892;28;20449;-83
2024/03/25 03:41:02;;;;;;;3.80;2.60;;;4.30;99.90;;;;;;5051024;28;20421;-83
2024/03/25 03:43:28;;;;;;;3.22;2.50;;;3.90;99.90;;;;;;5038942;28;20387;-83
2024/03/25 03:45:53;;;;;;;3.00;2.60;;;5.70;99.90;;;;;;5047917;28;20381;-83
2024/03/25 03:48:19;;;;;;;3.90;2.60;;;4.20;99.90;;;;;;5057512;28;20381;-83
2024/03/25 03:50:45;;;;;;;3.30;2.60;;;4.00;99.90;;;;;;5056629;28;20389;-83
2024/03/25 03:53:11;;;;;;;4.30;2.43;;;3.90;99.90;;;;;;5073974;28;20412;-83
2024/03/25 03:55:37;;;;;;;3.80;2.40;;;3.90;99.90;;;;;;5076864;28;20426;-83
2024/03/25 03:58:03;;;;;;;4.35;2.70;;;;;;;;;;5077249;28;20373;-83
2024/03/25 04:00:29;;;;;;;4.22;2.38;;;3.70;99.90;;;;;;5076538;28;20401;-83
2024/03/25 04:02:54;;;;;;;2.90;2.60;;;3.40;99.90;;;;;;5076079;28;20462;-83
2024/03/25 04:05:20;;;;;;;4.00;2.30;;;2.80;99.90;;;;;;5059144;28;20408;-83
2024/03/25 04:07:45;;;;;;;3.40;2.80;;;3.50;99.90;;;;;;5056304;28;20496;-83
2024/03/25 04:10:11;;;;;;;4.87;2.53;;;3.70;99.90;;;;;;5056637;28;20385;-83
2024/03/25 04:12:37;;;;;;;3.70;2.90;;;3.70;99.90;;;;;;5057783;28;20980;-83
2024/03/25 04:15:03;;;;;;;4.65;2.83;;;3.30;99.90;;;;;;5057482;28;20381;-83
2024/03/25 04:17:29;;;;;;;3.10;2.72;;;3.50;99.90;;;;;;5045957;28;20393;-83
2024/03/25 04:19:54;;;;;;;4.20;2.80;;;3.40;99.90;;;;;;5055493;28;20468;-83
2024/03/25 04:22:20;;;;;;;4.60;2.90;;;3.50;99.90;;;;;;5056160;28;20416;-83
2024/03/25 04:24:46;;;;;;;4.00;3.10;;;3.20;99.90;;;;;;5055949;28;20487;-83
2024/03/25 04:27:12;;;;;;;4.23;3.83;;;5.80;99.90;;;;;;5056250;28;20868;-83
2024/03/25 04:29:37;;;;;;;3.30;3.00;;;3.40;99.90;;;;;;5055585;28;20381;-83
2024/03/25 04:32:03;;;;;;;3.63;3.33;;;3.10;99.90;;;;;;5057440;28;20389;-83
2024/03/25 04:34:29;;;;;;;3.70;3.03;;;3.40;99.90;;;;;;5052940;28;20484;-83
2024/03/25 04:36:56;;;;;;;3.67;2.97;;;3.10;99.90;;;;;;5054061;28;20471;-83
2024/03/25 04:39:22;;;;;;;4.80;3.47;;;3.40;99.90;;;;;;5044726;28;20456;-83
2024/03/25 04:41:47;;;;;;;4.63;3.53;;;3.00;99.90;;;;;;5046557;28;20409;-83
2024/03/25 04:44:13;;;;;;;5.17;2.93;;;3.10;99.90;;;;;;5049226;28;20436;-83
2024/03/25 04:46:38;;;;;;;3.63;2.90;;;2.90;99.90;;;;;;5040398;28;21080;-84
2024/03/25 04:49:04;;;;;;;2.83;2.63;;;3.20;99.90;;;;;;5046246;28;20399;-83
2024/03/25 04:51:31;;;;;;;3.67;2.30;;;3.00;99.90;;;;;;5038891;28;20395;-83
2024/03/25 04:53:57;;;;;;;3.50;2.55;;;2.60;99.90;;;;;;5056997;28;20414;-83
2024/03/25 04:56:22;;;;;;;4.53;3.10;;;3.70;99.90;;;;;;5046439;28;20409;-83
2024/03/25 04:58:48;;;;;;;4.57;2.70;;;3.20;99.90;;;;;;5040621;28;20423;-83
2024/03/25 05:01:13;;;;;;;4.00;2.70;;;2.70;99.90;;;;;;5054554;28;20485;-83
2024/03/25 05:03:39;;;;;;;4.00;3.00;;;3.00;99.90;;;;;;5054643;28;20389;-83
2024/03/25 05:06:05;;;;;;;4.87;2.67;;;3.00;99.90;;;;;;5056989;28;20389;-83
2024/03/25 05:08:31;;;;;;;4.15;2.50;;;2.90;99.90;;;;;;5041080;28;20478;-83
2024/03/25 05:10:56;;;;;;;6.22;2.90;;;2.50;99.90;;;;;;5042069;28;20385;-83
2024/03/25 05:13:22;;;;;;;4.80;2.90;;;2.90;99.90;;;;;;5049530;28;20799;-83
2024/03/25 05:15:51;;;;;;;3.55;2.95;;;3.10;99.90;;;;;;5039204;28;20920;-83
2024/03/25 05:18:17;;;;;;;5.00;3.03;;;2.90;99.90;;;;;;5035929;28;20386;-83
2024/03/25 05:20:43;;;;;;;5.93;3.30;;;2.90;99.90;;;;;;5050710;28;20389;-83
2024/03/25 05:23:09;;;;;;;5.83;3.50;;;2.40;99.90;;;;;;5049157;28;20382;-82
2024/03/25 05:25:35;;;;;;;3.93;3.37;;;2.70;99.90;;;;;;5036588;28;20409;-83
2024/03/25 05:28:01;;;;;;;3.20;2.85;;;2.90;99.90;;;;;;5036663;28;20395;-82
2024/03/25 05:30:26;;;;;;;3.50;3.20;;;2.80;99.90;;;;;;5039978;28;20421;-83
2024/03/25 05:32:52;;;;;;;3.00;2.70;;;3.10;99.90;;;;;;5044442;28;20426;-83
2024/03/25 05:35:18;;;;;;;3.95;2.85;;;2.80;99.90;;;;;;5040024;28;20401;-83
2024/03/25 05:37:43;;;;;;;3.30;2.80;;;3.70;99.90;;;;;;5037236;28;20416;-84
2024/03/25 05:40:11;;;;;;;2.60;2.40;;;4.10;99.90;;;;;;5035548;28;20385;-83
2024/03/25 05:42:37;;;;;;;4.70;2.50;;;2.70;99.90;;;;;;5035034;28;20836;-84
2024/03/25 05:45:03;;;;;;;3.22;2.70;;;2.50;99.90;;;;;;5036339;28;20389;-83
2024/03/25 05:47:29;;;;;;;3.42;2.55;;;2.40;99.90;;;;;;5039101;28;20373;-83
2024/03/25 05:49:54;;;;;;;3.27;2.67;;;2.90;99.90;;;;;;5036746;28;20404;-83
2024/03/25 05:52:20;;;;;;;3.40;3.10;;;2.30;99.90;;;;;;5037649;28;20396;-82
2024/03/25 05:54:46;;;;;;;3.38;2.92;;;2.40;99.90;;;;;;5041748;28;20407;-83
2024/03/25 05:57:12;;;;;;;5.20;3.38;;;2.70;99.90;;;;;;5039668;28;20415;-83
2024/03/25 05:59:37;;;;;;;4.20;2.90;;;2.80;99.90;;;;;;5045042;28;20397;-83
2024/03/25 06:02:03;;;;;;;3.50;3.10;;;2.70;99.90;;;;;;5041350;28;20410;-83
2024/03/25 06:04:28;;;;;;;3.30;3.00;;;2.60;99.90;;;;;;5040215;28;20389;-83
2024/03/25 06:06:54;;;;;;;4.47;3.20;;;2.70;99.90;;;;;;5041173;28;20379;-84
2024/03/25 06:09:19;;;;;;;3.40;3.10;;;2.90;99.90;;;;;;5051944;28;20493;-83
2024/03/25 06:11:45;;;;;;;4.10;2.70;;;2.80;99.90;;;;;;5048117;28;20397;-82
2024/03/25 06:14:10;;;;;;;5.40;3.20;;;2.90;99.90;;;;;;5042160;28;20453;-83
2024/03/25 06:16:36;;;;;;;3.93;2.97;;;2.70;99.90;;;;;;5036780;28;20424;-83
2024/03/25 06:19:02;;;;;;;5.45;2.95;;;2.90;99.90;;;;;;5042358;28;20424;-84
2024/03/25 06:21:28;;;;;;;3.10;2.80;;;3.00;99.90;;;;;;5050612;28;20411;-84
2024/03/25 06:23:54;;;;;;;4.75;2.75;;;3.10;99.90;;;;;;5067179;28;21146;-84
2024/03/25 06:26:19;;;;;;;5.07;3.20;;;2.90;99.90;;;;;;5066781;28;20375;-83
2024/03/25 06:28:45;;;;;;;3.27;2.70;;;3.10;99.90;;;;;;5047087;28;20428;-81
2024/03/25 06:36:39;;;;;;;3.75;2.78;;;3.00;99.90;;;;;;5056480;28;20482;-83
2024/03/25 06:39:05;;;;;;;3.30;3.00;;;3.70;99.90;;;;;;5037851;28;20484;-81
2024/03/25 06:41:31;;;;;;;4.05;2.83;;;3.30;99.90;;;;;;5037857;28;20405;-82
2024/03/25 06:43:57;;;;;;;3.30;2.97;;;3.30;99.90;;;;;;5038356;28;20413;-82
2024/03/25 06:46:23;;;;;;;3.10;2.80;;;3.30;99.90;;;;;;5049857;28;20483;-82
2024/03/25 06:48:48;;;;;;;3.70;2.70;;;3.70;99.90;;;;;;5058842;28;20393;-81
2024/03/25 06:51:14;;;;;;;3.60;3.10;;;3.80;99.90;;;;;;5053245;28;20399;-82
2024/03/25 06:53:39;;;;;;;4.60;2.83;;;3.50;99.90;;;;;;5040935;28;20399;-81
2024/03/25 06:56:05;;;;;;;4.55;3.05;;;3.60;99.90;;;;;;5044347;28;20470;-81
2024/03/25 06:58:31;;;;;;;3.80;2.90;;;;;;;;;;5043247;28;20400;-82
2024/03/25 07:01:03;;;;;;;4.30;2.90;;;4.10;99.90;;;;;;5040134;28;20934;-82
2024/03/25 07:03:28;;;;;;;4.70;3.40;;;4.30;99.90;;;;;;5033254;28;20877;-82
2024/03/25 07:05:55;;;;;;;4.07;2.80;;;3.90;99.90;;;;;;5034922;28;20409;-82
2024/03/25 07:08:21;;;;;;;3.28;2.97;;;4.30;99.90;;;;;;5032732;28;21306;-82
2024/03/25 07:10:46;;;;;;;4.15;3.00;;;3.90;99.90;;;;;;5032134;28;20421;-82
2024/03/25 07:13:12;;;;;;;3.58;3.28;;;4.40;99.90;;;;;;5032752;28;20479;-81
2024/03/25 07:15:39;;;;;;;4.07;2.80;;;4.30;99.90;;;;;;5035070;28;20405;-82
2024/03/25 07:18:05;;;;;;;3.50;2.72;;;4.50;99.90;;;;;;5045656;28;20412;-82
2024/03/25 07:20:31;;;;;;;5.10;3.22;;;4.00;99.90;;;;;;5043457;28;20407;-82
2024/03/25 07:22:57;;;;;;;3.78;2.90;;;4.60;99.90;;;;;;5034828;28;20456;-82
2024/03/25 07:25:24;;;;;;;5.22;3.50;;;6.20;99.90;;;;;;5032396;28;20425;-82
2024/03/25 07:27:49;;;;;;;4.20;2.90;;;4.60;99.90;;;;;;5032022;28;20387;-82
2024/03/25 07:30:15;;;;;;;4.38;2.75;;;5.00;99.90;;;;;;5035340;28;20742;-82
2024/03/25 07:32:41;;;;;;;5.47;3.50;;;6.90;99.90;;;;;;5038224;28;20389;-82
2024/03/25 07:35:08;;;;;;;4.17;2.60;;;5.40;99.90;;;;;;5033323;28;20409;-82
2024/03/25 07:37:34;;;;;;;4.57;2.90;;;6.00;99.90;;;;;;5036950;28;20393;-81
2024/03/25 07:39:59;;;;;;;3.55;3.10;;;5.50;99.90;;;;;;5038433;28;20459;-81
2024/03/25 07:42:25;;;;;;;4.28;3.00;;;5.10;99.90;;;;;;5050685;28;20420;-81
2024/03/25 07:44:50;;;;;;;3.28;2.88;;;5.20;99.90;;;;;;5039086;28;20405;-82
2024/03/25 07:47:16;;;;;;;3.77;2.80;;;5.70;99.90;;;;;;5036904;28;20900;-81
2024/03/25 07:49:41;;;;;;;3.57;2.90;;;5.70;99.90;;;;;;5038973;28;20469;-81
2024/03/25 07:52:07;;;;;;;3.80;2.90;;;5.90;99.90;;;;;;5035491;28;20922;-81
2024/03/25 07:54:33;;;;;;;4.20;2.50;;;6.30;99.90;;;;;;5035299;28;20808;-82
2024/03/25 07:56:59;;;;;;;4.72;2.50;;;;;;;;;;5051890;28;20451;-83
2024/03/25 07:59:24;;;;;;;4.57;2.70;;;6.40;99.90;;;;;;5047665;28;20390;-83
2024/03/25 08:01:51;;;;;;;4.00;2.50;;;6.30;99.90;;;;;;5054257;28;20417;-83
2024/03/25 08:04:16;;;;;;;2.40;2.20;;;6.20;99.90;;;;;;5056654;28;20396;-84
2024/03/25 08:06:42;;;;;;;3.80;2.20;;;6.10;99.90;;;;;;5050877;28;20413;-84
2024/03/25 08:09:09;;;;;;;3.13;2.30;;;6.70;99.90;;;;;;5050850;28;20420;-83
2024/03/25 08:11:34;;;;;;;3.80;2.35;;;6.60;99.90;;;;;;5051884;28;20397;-83
2024/03/25 08:14:00;;;;;;;4.20;2.40;;;6.10;99.90;;;;;;5038964;28;21045;-83
2024/03/25 08:16:26;;;;;;;3.90;2.40;;;6.70;99.90;;;;;;5054942;28;20496;-82
2024/03/25 08:18:51;;;;;;;3.25;2.20;;;6.80;99.90;;;;;;5055689;28;20781;-83
2024/03/25 08:21:17;;;;;;;5.50;2.50;;;6.50;99.90;;;;;;5059135;28;20405;-83
2024/03/25 08:23:45;;;;;;;3.20;2.10;;;6.40;99.90;;;;;;5058219;28;20385;-83
2024/03/25 08:26:11;;;;;;;2.70;1.90;;;6.70;99.90;;;;;;5038958;28;20426;-83
2024/03/25 08:28:37;;;;;;;2.20;2.00;;;7.20;99.90;;;;;;5037625;28;20384;-83
2024/03/25 08:31:03;;;;;;;2.60;2.05;;;6.70;99.90;;;;;;5037103;28;20901;-83
2024/03/25 08:33:29;;;;;;;4.55;2.10;;;7.40;99.90;;;;;;5036510;28;20475;-83
2024/03/25 08:35:54;;;;;;;2.40;2.10;;;7.10;99.90;;;;;;5036638;28;20389;-83
2024/03/25 08:38:20;;;;;;;3.83;2.50;;;7.80;99.90;;;;;;5038913;28;20422;-83
2024/03/25 08:40:45;;;;;;;4.00;2.07;;;7.70;99.90;;;;;;5056824;28;20410;-82
2024/03/25 08:43:11;;;;;;;3.60;2.30;;;7.50;99.90;;;;;;5056065;28;20419;-82
2024/03/25 08:45:36;;;;;;;4.03;2.00;;;6.70;99.90;;;;;;5050170;28;20407;-82
2024/03/25 08:48:02;;;;;;;3.80;2.10;;;7.40;99.90;;;;;;5049386;28;20399;-83
2024/03/25 08:50:27;;;;;;;3.30;2.20;;;7.80;99.90;;;;;;5049626;28;20396;-83
2024/03/25 08:52:54;;;;;;;2.20;1.60;;;7.90;99.90;;;;;;5045654;28;20473;-82
2024/03/25 08:55:19;;;;;;;4.60;1.58;;;7.50;99.90;;;;;;5046757;28;20501;-83
2024/03/25 08:57:45;;;;;;;2.13;1.60;;;8.10;99.90;;;;;;5046068;28;20535;-83
2024/03/25 09:00:11;;;;;;;3.80;1.40;;;8.70;99.90;;;;;;5061531;28;20504;-82
2024/03/25 09:02:37;;;;;;;2.80;1.67;;;8.70;99.90;;;;;;5063532;28;20409;-83
2024/03/25 09:05:06;;;;;;;1.90;1.50;;;8.20;99.90;;;;;;5061461;28;20388;-83
2024/03/25 09:07:32;;;;;;;2.35;1.90;;;;;;;;;;5054974;28;20472;-83
2024/03/25 09:12:42;;;;;;;1.80;1.50;;;9.10;99.90;;;;;;5063067;28;20411;-83
2024/03/25 09:15:09;;;;;;;1.40;1.30;;;8.50;99.90;;;;;;5061746;28;20389;-83
2024/03/25 09:17:35;;;;;;;1.80;1.70;;;9.10;99.90;;;;;;5055404;28;20384;-83
2024/03/25 09:22:38;;;;;;;1.80;1.40;;;9.50;99.90;;;;;;5056272;28;20433;-82
2024/03/25 09:25:04;;;;;;;1.60;1.33;;;9.30;99.90;;;;;;5065573;28;20745;-82
2024/03/25 09:27:29;;;;;;;1.40;1.23;;;9.40;99.90;;;;;;5057688;28;20389;-82
2024/03/25 09:29:55;;;;;;;3.33;1.35;;;9.60;99.90;;;;;;5059245;28;20472;-82
2024/03/25 09:32:20;;;;;;;1.50;1.15;;;9.50;99.90;;;;;;5058609;28;20401;-82
2024/03/25 09:34:47;;;;;;;3.63;1.20;;;9.70;99.90;;;;;;5051265;28;20757;-82
2024/03/25 09:37:12;;;;;;;1.92;1.40;;;9.80;99.90;;;;;;5045101;28;20395;-82
2024/03/25 09:39:38;;;;;;;2.20;1.20;;;9.40;99.90;;;;;;5043199;28;20422;-82
2024/03/25 09:42:07;;;;;;;1.20;1.10;;;9.50;99.90;;;;;;5054412;28;20405;-82
2024/03/25 09:44:33;;;;;;;1.83;1.00;;;9.70;99.90;;;;;;5053719;28;20801;-82
2024/03/25 09:47:00;;;;;;;1.50;1.20;;;9.90;99.90;;;;;;5044914;28;20474;-81
2024/03/25 09:49:26;;;;;;;1.95;1.10;;;10.10;99.90;;;;;;5063349;28;20392;-81
2024/03/25 09:51:52;;;;;;;3.20;1.10;;;10.20;99.90;;;;;;5057138;28;20922;-82
2024/03/25 09:54:21;;;;;;;2.05;1.10;;;10.20;99.90;;;;;;5056030;28;20389;-82
2024/03/25 09:56:48;;;;;;;1.00;0.90;;;8.50;99.90;;;;;;5055002;28;20385;-82
2024/03/25 09:59:14;;;;;;;2.92;1.25;;;10.10;99.90;;;;;;5055471;28;20390;-82
2024/03/25 10:01:39;;;;;;;2.10;1.10;;;10.30;99.90;;;;;;5057202;28;20982;-81
2024/03/25 10:04:11;;;;;;;1.50;0.90;;;10.20;99.90;;;;;;5057251;28;20389;-82
2024/03/25 10:06:38;;;;;;;1.65;1.20;;;10.20;99.90;;;;;;5073773;28;20824;-82
2024/03/25 10:09:06;;;;;;;1.40;1.20;;;9.80;99.90;;;;;;5057744;28;20424;-82
2024/03/25 10:11:35;;;;;;;2.20;1.20;;;10.30;99.90;;;;;;5053693;28;20387;-83
2024/03/25 10:14:01;;;;;;;2.35;1.48;;;10.60;99.90;;;;;;5038135;28;20488;-82
2024/03/25 10:16:29;;;;;;;2.40;1.00;;;10.60;99.90;;;;;;5040348;28;20463;-82
2024/03/25 10:18:55;;;;;;;1.90;0.87;;;10.70;99.90;;;;;;5044722;28;20405;-82
2024/03/25 10:21:21;;;;;;;2.10;1.00;;;10.90;99.90;;;;;;5056689;28;20409;-82
2024/03/25 10:23:48;;;;;;;1.83;1.00;;;10.40;99.90;;;;;;5073431;28;20432;-83
2024/03/25 10:26:31;;;;;;;2.50;1.10;;;10.90;99.90;;;;;;5057081;28;20370;-81
2024/03/25 10:29:13;;;;;;;3.00;1.55;;;10.70;99.90;;;;;;5057557;28;20431;-81
2024/03/25 10:31:39;;;;;;;1.90;1.20;;;10.90;99.90;;;;;;5055831;28;20443;-81
2024/03/25 10:34:04;;;;;;;1.90;1.10;;;10.70;99.90;;;;;;5062746;28;20390;-82
2024/03/25 10:36:30;;;;;;;1.37;0.93;;;11.10;99.90;;;;;;5074284;28;20385;-80
2024/03/25 10:39:07;;;;;;;2.05;1.20;;;;;;;;;;5068378;28;20401;-81
2024/03/25 10:41:35;;;;;;;1.90;1.20;;;11.30;99.90;;;;;;5069455;28;20470;-82
2024/03/25 10:44:06;;;;;;;1.23;1.03;;;11.50;99.90;;;;;;5055826;28;20449;-82
2024/03/25 10:46:34;;;;;;;1.20;1.00;;;11.70;99.90;;;;;;5055206;28;20393;-82
2024/03/25 10:49:11;;;;;;;2.15;1.30;;;11.70;99.90;;;;;;5065608;28;20397;-82
2024/03/25 10:51:39;;;;;;;2.40;1.40;;;11.70;99.90;;;;;;5071036;28;20388;-82
2024/03/25 10:54:06;;;;;;;2.47;1.30;;;10.80;99.90;;;;;;5062133;28;20391;-82
2024/03/25 10:56:32;;;;;;;1.48;1.05;;;12.60;99.90;;;;;;5065705;28;20397;-83
2024/03/25 10:58:57;;;;;;;2.53;1.10;;;12.30;99.90;;;;;;5057617;28;20396;-82
2024/03/25 11:01:24;;;;;;;2.55;1.25;;;12.20;99.90;;;;;;5064796;28;20969;-81
2024/03/25 11:03:50;;;;;;;2.20;1.50;;;11.70;99.90;;;;;;5075215;28;20441;-81
2024/03/25 11:06:16;;;;;;;2.22;1.60;;;12.10;99.90;;;;;;5069242;28;20427;-81
2024/03/25 11:08:46;;;;;;;2.80;1.20;;;12.00;99.90;;;;;;5057670;28;20400;-82
2024/03/25 11:11:12;;;;;;;1.73;1.40;;;12.40;99.90;;;;;;5058453;28;20458;-80
2024/03/25 11:13:39;;;;;;;1.90;1.40;;;12.50;99.90;;;;;;5067416;28;20446;-81
2024/03/25 11:16:07;;;;;;;2.95;1.50;;;13.20;99.90;;;;;;5057329;28;20386;-81
2024/03/25 11:18:33;;;;;;;2.30;1.20;;;15.30;99.90;;;;;;5075416;28;20395;-82
2024/03/25 11:21:04;;;;;;;3.10;1.30;;;12.80;99.90;;;;;;5063342;28;20409;-82
2024/03/25 11:23:41;;;;;;;1.48;1.10;;;12.70;99.90;;;;;;5055428;28;20386;-81
2024/03/25 11:26:18;;;;;;;1.70;1.20;;;12.30;99.90;;;;;;5055828;28;20397;-81
2024/03/25 11:28:45;;;;;;;2.70;1.10;;;12.80;99.90;;;;;;5057362;28;20614;-83
2024/03/25 11:31:13;;;;;;;3.00;1.10;;;14.00;99.90;;;;;;5058278;28;20442;-81
2024/03/25 11:33:39;;;;;;;1.20;1.10;;;13.80;99.90;;;;;;5061918;28;20394;-82
2024/03/25 11:36:05;;;;;;;2.20;1.30;;;13.00;99.90;;;;;;5056661;28;20891;-82
2024/03/25 11:38:31;;;;;;;1.43;1.00;;;13.80;99.90;;;;;;5034985;28;20459;-82
2024/03/25 11:40:57;;;;;;;2.50;1.10;;;14.70;99.90;;;;;;5040378;28;20933;-82
2024/03/25 11:43:23;;;;;;;1.60;0.90;;;15.00;99.90;;;;;;5057091;28;20424;-82
2024/03/25 11:45:49;;;;;;;3.15;1.30;;;14.80;1.00;;;;;;5073533;28;20445;-82
2024/03/25 11:48:16;;;;;;;2.00;1.60;;;14.80;1.00;;;;;;5086004;28;20388;-82
2024/03/25 11:50:44;;;;;;;2.80;1.30;;;17.00;1.00;;;;;;5103020;28;20388;-81
2024/03/25 11:53:46;;;;;;;1.95;0.90;;;17.20;1.00;;;;;;5075479;28;20397;-82
2024/03/25 11:56:15;;;;;;;2.65;1.05;;;;;;;;;;5041609;28;20399;-83
2024/03/25 11:58:41;;;;;;;1.50;1.00;;;;;;;;;;5075930;28;20389;-83
2024/03/25 12:01:10;;;;;;;1.60;0.80;;;16.70;1.00;;;;;;5040320;28;20394;-83
2024/03/25 12:04:13;;;;;;;1.48;0.90;;;16.40;1.00;;;;;;5040520;28;20401;-82
2024/03/25 12:06:39;;;;;;;1.95;1.00;;;;;;;;;;5042780;28;20378;-81
2024/03/25 12:11:52;;;;;;;0.97;0.87;;;16.90;1.00;;;;;;5039077;28;20394;-82
2024/03/25 12:14:21;;;;;;;2.10;1.00;;;;;;;;;;5046237;28;20389;-82
2024/03/25 12:16:50;;;;;;;1.60;0.80;;;16.60;1.00;;;;;;5058871;28;20396;-83
2024/03/25 12:19:18;;;;;;;1.52;0.90;;;16.10;1.00;;;;;;5041770;28;20477;-81
2024/03/25 12:21:44;;;;;;;1.30;0.80;;;15.80;1.00;;;;;;5059047;28;20444;-82
2024/03/25 12:24:13;;;;;;;1.20;0.82;;;16.10;1.00;;;;;;5056802;28;20386;-82
2024/03/25 12:26:39;;;;;;;1.23;1.00;;;16.30;1.00;;;;;;5058134;28;20388;-82
2024/03/25 12:29:29;;;;;;;1.65;1.10;;;15.70;1.00;;;;;;5058722;28;20431;-81
2024/03/25 12:31:58;;;;;;;1.20;1.00;;;15.80;1.00;;;;;;5056244;28;20476;-79
2024/03/25 12:34:45;;;;;;;2.10;1.00;;;16.40;1.00;;;;;;5063242;28;20401;-81
2024/03/25 12:37:21;;;;;;;2.45;1.20;;;;;;;;;;5060416;28;20393;-83
2024/03/25 12:39:47;;;;;;;2.90;1.20;;;16.40;1.00;;;;;;5056375;28;20912;-81
2024/03/25 12:42:16;;;;;;;1.80;0.98;;;;;;;;;;5121871;22;20442;-81
2024/03/25 12:44:42;;;;;;;2.40;1.20;;;16.50;1.00;;;;;;5061373;28;20384;-81
2024/03/25 12:47:07;;;;;;;1.10;1.00;;;15.90;1.00;;;;;;5060101;28;20372;-81
2024/03/25 12:49:33;;;;;;;1.90;1.10;;;16.70;1.00;;;;;;5076685;28;20923;-82
2024/03/25 12:51:58;;;;;;;1.60;1.10;;;15.80;1.00;;;;;;5059593;28;20383;-82
2024/03/25 12:54:24;;;;;;;1.43;1.00;;;17.10;1.00;;;;;;5077948;28;20380;-82
2024/03/25 12:56:49;;;;;;;2.20;1.10;;;16.80;1.00;;;;;;5059361;28;20401;-81
2024/03/25 12:59:15;;;;;;;2.30;0.77;;;15.50;1.00;;;;;;5054969;28;20824;-82
2024/03/25 13:01:44;;;;;;;1.17;1.08;;;15.70;1.00;;;;;;5055087;28;20506;-82
2024/03/25 13:04:09;;;;;;;1.50;0.88;;;16.10;1.00;;;;;;5055284;28;20755;-81
2024/03/25 13:06:35;;;;;;;1.92;0.80;;;15.90;1.00;;;;;;5055836;28;20440;-82
2024/03/25 13:09:00;;;;;;;3.00;1.20;;;17.00;1.00;;;;;;5039327;28;20381;-82
2024/03/25 13:11:26;;;;;;;1.70;1.00;;;16.80;1.00;;;;;;5057783;28;20395;-82